Time;durP1;ratioP1;P1;durP2;ratioP2;P2;SDS_P1;SDS_P2;PMS_P1;PMS_P2;Temp;Humidity;BMP_temperature;BMP_pressure;BME280_temperature;BME280_humidity;BME280_pressure;Samples;Min_cycle;Max_cycle;Signal;HPM_P1;HPM_P2
2021/09/11 00:00:16;;;;;;;7.53;6.63;;;19.10;99.90;;;;;;5067580;28;20095;-64
2021/09/11 00:02:46;;;;;;;8.30;7.40;;;19.00;99.90;;;;;;5062282;28;20044;-64
2021/09/11 00:05:13;;;;;;;9.15;8.25;;;19.00;99.90;;;;;;5044140;28;20051;-64
2021/09/11 00:07:39;;;;;;;10.32;8.52;;;18.90;99.90;;;;;;5065499;28;20025;-64
2021/09/11 00:10:06;;;;;;;9.50;8.60;;;18.80;99.90;;;;;;5059824;28;20036;-63
2021/09/11 00:12:33;;;;;;;9.48;8.45;;;18.70;99.90;;;;;;5054557;28;20015;-63
2021/09/11 00:14:58;;;;;;;8.65;7.13;;;18.70;99.90;;;;;;5064454;28;20468;-63
2021/09/11 00:17:24;;;;;;;7.85;6.93;;;18.70;99.90;;;;;;5062272;28;20021;-63
2021/09/11 00:19:50;;;;;;;7.82;6.78;;;18.70;99.90;;;;;;5067072;28;20032;-63
2021/09/11 00:22:16;;;;;;;9.63;7.32;;;18.70;99.90;;;;;;5066100;28;20111;-63
2021/09/11 00:24:41;;;;;;;9.82;8.00;;;18.70;99.90;;;;;;5063768;28;21347;-63
2021/09/11 00:27:07;;;;;;;7.70;6.90;;;18.70;99.90;;;;;;5048168;28;20384;-63
2021/09/11 00:29:32;;;;;;;8.60;7.28;;;18.70;99.90;;;;;;5044388;28;20112;-64
2021/09/11 00:31:58;;;;;;;7.25;6.38;;;18.80;99.90;;;;;;5049328;28;20019;-64
2021/09/11 00:34:24;;;;;;;7.53;6.40;;;18.80;99.90;;;;;;5059891;28;20013;-63
2021/09/11 00:36:49;;;;;;;7.25;6.55;;;18.80;99.90;;;;;;5060725;28;20094;-63
2021/09/11 00:39:16;;;;;;;8.43;6.43;;;18.90;99.90;;;;;;5065333;28;20021;-63
2021/09/11 00:41:41;;;;;;;9.05;6.15;;;18.90;99.90;;;;;;5065627;28;20953;-64
2021/09/11 00:44:07;;;;;;;7.10;6.28;;;18.80;99.90;;;;;;5058244;28;20048;-64
2021/09/11 00:46:32;;;;;;;7.05;6.35;;;18.90;99.90;;;;;;5062185;28;20025;-63
2021/09/11 00:48:58;;;;;;;7.32;6.47;;;18.90;99.90;;;;;;5064057;28;20124;-63
2021/09/11 00:51:24;;;;;;;10.32;7.53;;;18.90;99.90;;;;;;5042980;28;20130;-64
2021/09/11 00:53:50;;;;;;;9.48;6.85;;;18.90;99.90;;;;;;5064810;28;20078;-63
2021/09/11 00:56:16;;;;;;;8.85;6.78;;;18.90;99.90;;;;;;5059832;28;20095;-63
2021/09/11 00:58:42;;;;;;;7.65;6.13;;;18.90;99.90;;;;;;5058303;28;20028;-63
2021/09/11 01:01:08;;;;;;;6.43;5.53;;;18.90;99.90;;;;;;5066052;28;20028;-63
2021/09/11 01:03:33;;;;;;;6.75;5.55;;;18.80;99.90;;;;;;5067695;28;20020;-63
2021/09/11 01:05:59;;;;;;;7.20;5.30;;;18.80;99.90;;;;;;5061090;28;20393;-63
2021/09/11 01:08:26;;;;;;;6.63;5.45;;;18.80;99.90;;;;;;5060853;28;20024;-63
2021/09/11 01:10:52;;;;;;;8.45;7.00;;;18.70;99.90;;;;;;5064999;28;20017;-63
2021/09/11 01:13:18;;;;;;;9.82;7.78;;;18.70;99.90;;;;;;5060448;28;20111;-63
2021/09/11 01:15:44;;;;;;;9.02;7.43;;;18.70;99.90;;;;;;5063348;28;20055;-63
2021/09/11 01:18:10;;;;;;;7.88;7.07;;;18.70;99.90;;;;;;5055732;28;20021;-63
2021/09/11 01:20:37;;;;;;;11.88;8.82;;;18.60;99.90;;;;;;5063532;28;20020;-63
2021/09/11 01:23:04;;;;;;;9.85;8.27;;;18.60;99.90;;;;;;5061280;28;20092;-63
2021/09/11 01:25:29;;;;;;;9.15;7.88;;;18.50;99.90;;;;;;5064287;28;20039;-63
2021/09/11 01:27:55;;;;;;;8.90;7.70;;;18.50;99.90;;;;;;5066745;28;20025;-63
2021/09/11 01:30:22;;;;;;;10.35;8.60;;;18.50;99.90;;;;;;5067140;28;20028;-63
2021/09/11 01:32:49;;;;;;;10.50;8.20;;;18.50;99.90;;;;;;5068592;28;20025;-63
2021/09/11 01:35:16;;;;;;;10.50;8.38;;;18.40;99.90;;;;;;5047490;28;20481;-63
2021/09/11 01:37:42;;;;;;;9.88;7.82;;;18.40;99.90;;;;;;5074152;28;20028;-63
2021/09/11 01:40:09;;;;;;;10.90;8.88;;;18.30;99.90;;;;;;5067714;28;20107;-63
2021/09/11 01:42:34;;;;;;;11.88;9.10;;;18.30;99.90;;;;;;5068070;28;20033;-63
2021/09/11 01:45:21;;;;;;;10.82;8.85;;;18.30;99.90;;;;;;5067085;28;20050;-63
2021/09/11 01:47:48;;;;;;;12.25;9.20;;;18.30;99.90;;;;;;5048345;28;20012;-64
2021/09/11 01:50:16;;;;;;;10.88;9.07;;;18.20;99.90;;;;;;5045524;28;20444;-63
2021/09/11 01:52:42;;;;;;;10.65;8.50;;;18.20;99.90;;;;;;5065107;28;20499;-63
2021/09/11 01:55:10;;;;;;;12.60;9.70;;;18.20;99.90;;;;;;5065819;28;20021;-63
2021/09/11 01:57:41;;;;;;;11.13;8.98;;;18.20;99.90;;;;;;5048268;28;20491;-63
2021/09/11 02:00:14;;;;;;;12.05;7.95;;;18.10;99.90;;;;;;5047764;28;20025;-63
2021/09/11 02:02:40;;;;;;;10.50;8.07;;;18.10;99.90;;;;;;5065435;28;20265;-63
2021/09/11 02:05:08;;;;;;;9.98;7.78;;;18.00;99.90;;;;;;5052028;28;20549;-63
2021/09/11 02:07:34;;;;;;;10.05;7.53;;;18.00;99.90;;;;;;5064597;28;20077;-63
2021/09/11 02:10:00;;;;;;;12.65;8.55;;;18.00;99.90;;;;;;5050868;28;20476;-63
2021/09/11 02:12:26;;;;;;;9.57;7.72;;;18.00;99.90;;;;;;5069159;28;20043;-63
2021/09/11 02:14:51;;;;;;;11.48;8.80;;;18.00;99.90;;;;;;5043135;28;20464;-63
2021/09/11 02:17:17;;;;;;;8.80;7.90;;;17.90;99.90;;;;;;5056733;28;20032;-63
2021/09/11 02:19:42;;;;;;;8.73;7.70;;;17.90;99.90;;;;;;5066950;28;20029;-63
2021/09/11 02:22:12;;;;;;;10.85;8.35;;;17.80;99.90;;;;;;5048339;28;20481;-63
2021/09/11 02:24:38;;;;;;;13.63;9.90;;;17.80;99.90;;;;;;5059322;28;20068;-63
2021/09/11 02:27:05;;;;;;;12.20;9.27;;;17.70;99.90;;;;;;5060167;28;20020;-63
2021/09/11 02:29:30;;;;;;;10.02;9.02;;;17.70;99.90;;;;;;5067181;28;20032;-63
2021/09/11 02:31:56;;;;;;;10.18;8.48;;;17.70;99.90;;;;;;5071480;28;20053;-63
2021/09/11 02:34:21;;;;;;;12.80;9.90;;;17.70;99.90;;;;;;5064314;28;20048;-63
2021/09/11 02:36:47;;;;;;;10.18;8.80;;;17.60;99.90;;;;;;5063304;28;20017;-63
2021/09/11 02:39:13;;;;;;;9.73;8.23;;;17.60;99.90;;;;;;5061854;28;20049;-63
2021/09/11 02:41:38;;;;;;;9.77;7.32;;;17.60;99.90;;;;;;5067788;28;20054;-63
2021/09/11 02:44:04;;;;;;;8.77;7.45;;;17.60;99.90;;;;;;5060131;28;20077;-63
2021/09/11 02:46:31;;;;;;;7.35;6.43;;;17.60;99.90;;;;;;5067155;28;20024;-63
2021/09/11 02:48:57;;;;;;;13.82;8.20;;;17.60;99.90;;;;;;5065635;28;20013;-63
2021/09/11 02:51:24;;;;;;;12.93;9.95;;;17.50;99.90;;;;;;5061306;28;20017;-62
2021/09/11 02:53:50;;;;;;;11.73;9.40;;;17.40;99.90;;;;;;5071865;28;20020;-63
2021/09/11 02:56:15;;;;;;;14.00;10.55;;;17.40;99.90;;;;;;5070355;28;20036;-63
2021/09/11 02:58:41;;;;;;;16.58;11.55;;;17.30;99.90;;;;;;5064618;28;20075;-63
2021/09/11 03:01:06;;;;;;;14.60;12.02;;;17.30;99.90;;;;;;5063872;28;20035;-63
2021/09/11 03:03:32;;;;;;;14.57;12.27;;;17.20;99.90;;;;;;5050035;28;20020;-62
2021/09/11 03:05:57;;;;;;;14.88;12.13;;;17.20;99.90;;;;;;5068139;28;20020;-63
2021/09/11 03:08:23;;;;;;;14.27;11.32;;;17.10;99.90;;;;;;5063851;28;20499;-63
2021/09/11 03:10:48;;;;;;;16.85;11.88;;;17.10;99.90;;;;;;5063213;28;20028;-63
2021/09/11 03:13:14;;;;;;;16.60;13.35;;;17.00;99.90;;;;;;5065077;28;20025;-63
2021/09/11 03:15:39;;;;;;;15.38;11.43;;;17.00;99.90;;;;;;5065038;28;20071;-62
2021/09/11 03:18:05;;;;;;;13.18;11.60;;;17.00;99.90;;;;;;5061891;28;20025;-63
2021/09/11 03:20:31;;;;;;;14.05;12.48;;;17.00;99.90;;;;;;5067150;28;20082;-63
2021/09/11 03:22:56;;;;;;;14.15;11.82;;;17.00;99.90;;;;;;5046675;28;20116;-63
2021/09/11 03:25:22;;;;;;;17.60;13.43;;;16.90;99.90;;;;;;5062504;28;20020;-63
2021/09/11 03:27:47;;;;;;;17.45;13.95;;;16.90;99.90;;;;;;5064434;28;20020;-63
2021/09/11 03:30:13;;;;;;;16.23;12.95;;;16.80;99.90;;;;;;5062614;28;20476;-62
2021/09/11 03:32:38;;;;;;;16.50;13.90;;;16.80;99.90;;;;;;5046510;28;20545;-63
2021/09/11 03:35:06;;;;;;;18.00;13.88;;;16.70;99.90;;;;;;5063339;28;20472;-63
2021/09/11 03:37:32;;;;;;;17.08;13.73;;;16.70;99.90;;;;;;5062071;28;20090;-62
2021/09/11 03:39:57;;;;;;;16.38;13.35;;;16.60;99.90;;;;;;5066909;28;20427;-62
2021/09/11 03:42:23;;;;;;;16.38;13.48;;;16.60;99.90;;;;;;5066310;28;20041;-63
2021/09/11 03:44:48;;;;;;;15.02;13.13;;;16.60;99.90;;;;;;5066717;28;20380;-62
2021/09/11 03:47:14;;;;;;;14.55;11.98;;;16.60;99.90;;;;;;5069314;28;20396;-62
2021/09/11 03:49:39;;;;;;;17.92;12.75;;;16.60;99.90;;;;;;5064130;28;20025;-62
2021/09/11 03:52:05;;;;;;;17.38;14.32;;;16.60;99.90;;;;;;5064546;28;20025;-62
2021/09/11 03:54:31;;;;;;;15.80;13.52;;;16.50;99.90;;;;;;5067820;28;20048;-62
2021/09/11 03:56:56;;;;;;;15.50;13.50;;;16.50;99.90;;;;;;5065687;28;20016;-62
2021/09/11 03:59:22;;;;;;;14.43;12.50;;;16.40;99.90;;;;;;5063385;28;20024;-62
2021/09/11 04:01:47;;;;;;;17.67;13.68;;;16.40;99.90;;;;;;5060274;28;20031;-62
2021/09/11 04:04:13;;;;;;;20.13;13.68;;;16.30;99.90;;;;;;5057744;28;20500;-62
2021/09/11 04:06:38;;;;;;;19.88;14.73;;;16.30;99.90;;;;;;5067186;28;20027;-62
2021/09/11 04:09:04;;;;;;;21.65;13.48;;;16.30;99.90;;;;;;5061201;28;20025;-62
2021/09/11 04:11:29;;;;;;;15.65;12.18;;;16.30;99.90;;;;;;5045927;28;20108;-62
2021/09/11 04:13:55;;;;;;;15.88;13.27;;;16.30;99.90;;;;;;5066544;28;20044;-62
2021/09/11 04:16:21;;;;;;;14.80;13.18;;;16.30;99.90;;;;;;5061863;28;20078;-62
2021/09/11 04:18:46;;;;;;;17.45;13.05;;;16.30;99.90;;;;;;5047632;28;20103;-62
2021/09/11 04:21:12;;;;;;;15.48;13.40;;;16.30;99.90;;;;;;5063032;28;20071;-62
2021/09/11 04:23:37;;;;;;;15.75;11.90;;;16.30;99.90;;;;;;5060865;28;20496;-62
2021/09/11 04:26:03;;;;;;;15.70;12.10;;;16.30;99.90;;;;;;5061571;28;20036;-62
2021/09/11 04:28:28;;;;;;;15.32;11.50;;;16.30;99.90;;;;;;5060416;28;20081;-62
2021/09/11 04:30:54;;;;;;;15.07;12.30;;;16.30;99.90;;;;;;5047891;28;20025;-62
2021/09/11 04:33:19;;;;;;;15.57;12.50;;;16.40;99.90;;;;;;5067687;28;20437;-62
2021/09/11 04:35:45;;;;;;;12.15;10.38;;;16.40;99.90;;;;;;5045463;28;20522;-62
2021/09/11 04:38:11;;;;;;;18.05;12.52;;;16.40;99.90;;;;;;5069319;28;20031;-62
2021/09/11 04:40:36;;;;;;;18.42;12.25;;;16.40;99.90;;;;;;5065050;28;20019;-62
2021/09/11 04:43:03;;;;;;;17.48;11.30;;;16.40;99.90;;;;;;5060406;28;20040;-62
2021/09/11 04:45:29;;;;;;;16.95;10.85;;;16.40;99.90;;;;;;5059022;28;20018;-62
2021/09/11 04:47:54;;;;;;;15.85;11.63;;;16.40;99.90;;;;;;5070368;28;20021;-62
2021/09/11 04:50:20;;;;;;;16.13;11.95;;;16.40;99.90;;;;;;5071489;28;20136;-62
2021/09/11 04:52:45;;;;;;;11.55;10.32;;;16.40;99.90;;;;;;5071629;28;20016;-62
2021/09/11 04:55:11;;;;;;;13.95;10.48;;;16.40;99.90;;;;;;5046377;28;20473;-62
2021/09/11 04:57:37;;;;;;;13.05;10.52;;;16.40;99.90;;;;;;5049489;28;20016;-62
2021/09/11 05:00:04;;;;;;;15.35;11.68;;;16.40;99.90;;;;;;5064133;28;20388;-62
2021/09/11 05:02:30;;;;;;;13.10;10.70;;;16.40;99.90;;;;;;5058705;28;20033;-62
2021/09/11 05:04:55;;;;;;;15.10;9.70;;;16.40;99.90;;;;;;5061476;28;20092;-62
2021/09/11 05:07:21;;;;;;;17.88;12.27;;;16.50;99.90;;;;;;5069798;28;20028;-63
2021/09/11 05:09:46;;;;;;;15.40;11.10;;;16.50;99.90;;;;;;5062402;28;20024;-62
2021/09/11 05:12:12;;;;;;;14.95;11.05;;;16.40;99.90;;;;;;5070762;28;20458;-62
2021/09/11 05:14:38;;;;;;;15.43;10.85;;;16.40;99.90;;;;;;5069132;28;20492;-62
2021/09/11 05:17:03;;;;;;;13.68;10.30;;;16.30;99.90;;;;;;5064904;28;20066;-63
2021/09/11 05:19:29;;;;;;;12.68;10.65;;;16.30;99.90;;;;;;5046034;28;20067;-62
2021/09/11 05:21:55;;;;;;;10.75;9.48;;;16.30;99.90;;;;;;5066836;28;20036;-62
2021/09/11 05:24:20;;;;;;;14.93;10.18;;;16.40;99.90;;;;;;5073670;28;20066;-62
2021/09/11 05:26:46;;;;;;;15.00;11.05;;;16.30;99.90;;;;;;5059385;28;20021;-62
2021/09/11 05:29:12;;;;;;;15.32;10.85;;;16.30;99.90;;;;;;5069681;28;20029;-62
2021/09/11 05:31:38;;;;;;;16.40;10.30;;;16.30;99.90;;;;;;5037496;28;20530;-62
2021/09/11 05:34:05;;;;;;;12.68;10.10;;;16.30;99.90;;;;;;5055301;28;20020;-62
2021/09/11 05:36:31;;;;;;;13.00;10.07;;;16.40;99.90;;;;;;5055519;28;20021;-62
2021/09/11 05:38:57;;;;;;;12.75;9.15;;;16.40;99.90;;;;;;5055540;28;20028;-62
2021/09/11 05:41:23;;;;;;;11.32;9.23;;;16.40;99.90;;;;;;5055536;28;20108;-63
2021/09/11 05:43:48;;;;;;;12.23;10.30;;;16.40;99.90;;;;;;5058776;28;20419;-62
2021/09/11 05:46:14;;;;;;;14.88;10.60;;;16.40;99.90;;;;;;5062854;28;20095;-62
2021/09/11 05:48:39;;;;;;;10.60;8.70;;;16.40;99.90;;;;;;5053224;28;20048;-62
2021/09/11 05:51:05;;;;;;;11.30;9.40;;;16.40;99.90;;;;;;5054299;28;20021;-62
2021/09/11 05:53:30;;;;;;;11.45;9.13;;;16.40;99.90;;;;;;5054089;28;20025;-62
2021/09/11 05:55:56;;;;;;;10.43;8.68;;;16.40;99.90;;;;;;5064410;28;20488;-62
2021/09/11 05:58:23;;;;;;;12.00;9.02;;;16.40;99.90;;;;;;5073199;28;20056;-62
2021/09/11 06:00:49;;;;;;;11.30;8.85;;;16.50;99.90;;;;;;5073750;28;20016;-62
2021/09/11 06:03:15;;;;;;;13.13;9.57;;;16.50;99.90;;;;;;5052694;28;20353;-63
2021/09/11 06:05:40;;;;;;;12.68;9.48;;;16.50;99.90;;;;;;5073427;28;20150;-62
2021/09/11 06:08:06;;;;;;;15.32;9.20;;;16.50;99.90;;;;;;5067322;28;20100;-62
2021/09/11 06:10:37;;;;;;;12.13;9.60;;;16.50;99.90;;;;;;5053710;28;20395;-62
2021/09/11 06:13:02;;;;;;;10.10;9.00;;;16.50;99.90;;;;;;5053993;28;20024;-62
2021/09/11 06:15:28;;;;;;;12.25;9.63;;;16.50;99.90;;;;;;5053867;28;20021;-62
2021/09/11 06:17:54;;;;;;;12.93;8.50;;;16.50;99.90;;;;;;5053665;28;20020;-62
2021/09/11 06:20:20;;;;;;;10.95;9.32;;;16.60;99.90;;;;;;5053903;28;20021;-62
2021/09/11 06:22:55;;;;;;;10.23;8.38;;;16.60;99.90;;;;;;5053419;28;20068;-62
2021/09/11 06:25:20;;;;;;;11.88;7.55;;;16.60;99.90;;;;;;5038579;28;20025;-62
2021/09/11 06:27:46;;;;;;;12.38;8.15;;;16.70;99.90;;;;;;5069528;28;20361;-62
2021/09/11 06:30:13;;;;;;;11.88;9.07;;;16.70;99.90;;;;;;5070086;28;20056;-62
2021/09/11 06:32:39;;;;;;;11.00;9.32;;;16.80;99.90;;;;;;5060497;28;20059;-62
2021/09/11 06:35:05;;;;;;;13.07;9.40;;;16.80;99.90;;;;;;5048272;28;20453;-62
2021/09/11 06:37:54;;;;;;;13.35;9.00;;;16.90;99.90;;;;;;5055779;28;20024;-62
2021/09/11 06:40:20;;;;;;;10.85;9.38;;;16.90;99.90;;;;;;5072176;28;20549;-62
2021/09/11 06:42:45;;;;;;;11.35;8.70;;;16.90;99.90;;;;;;5037354;28;1017293;-63
2021/09/11 06:45:11;;;;;;;14.32;9.88;;;17.00;99.90;;;;;;5066741;28;20032;-62
2021/09/11 06:47:36;;;;;;;11.23;8.75;;;17.10;99.90;;;;;;5054275;28;20060;-62
2021/09/11 06:50:02;;;;;;;10.18;7.82;;;17.10;99.90;;;;;;5035993;28;20024;-62
2021/09/11 06:52:28;;;;;;;8.27;7.43;;;17.20;99.90;;;;;;5056149;28;20032;-62
2021/09/11 06:54:53;;;;;;;10.75;8.35;;;17.20;99.90;;;;;;5073404;28;20020;-62
2021/09/11 06:57:19;;;;;;;10.32;8.27;;;17.20;99.90;;;;;;5073448;28;20030;-62
2021/09/11 06:59:44;;;;;;;8.50;7.43;;;17.20;99.90;;;;;;5069880;28;20029;-62
2021/09/11 07:02:10;;;;;;;8.25;6.32;;;17.20;99.90;;;;;;5069842;28;20489;-63
2021/09/11 07:04:35;;;;;;;10.88;8.32;;;17.20;99.90;;;;;;5071354;28;20048;-62
2021/09/11 07:07:01;;;;;;;13.75;7.65;;;17.30;99.90;;;;;;5067880;28;20380;-65
2021/09/11 07:09:26;;;;;;;9.80;8.10;;;17.30;99.90;;;;;;5072247;28;20380;-65
2021/09/11 07:11:52;;;;;;;10.02;6.72;;;17.30;99.90;;;;;;5073281;28;20021;-62
2021/09/11 07:14:18;;;;;;;12.25;8.15;;;17.40;99.90;;;;;;5073325;28;20029;-62
2021/09/11 07:16:44;;;;;;;9.70;8.60;;;17.40;99.90;;;;;;5067583;28;20020;-63
2021/09/11 07:19:10;;;;;;;11.98;8.45;;;17.40;99.90;;;;;;5072732;28;20081;-62
2021/09/11 07:21:38;;;;;;;12.18;9.65;;;17.50;99.90;;;;;;5066176;28;20566;-62
2021/09/11 07:24:04;;;;;;;12.90;9.02;;;17.50;99.90;;;;;;5055419;28;20028;-62
2021/09/11 07:26:30;;;;;;;12.75;9.48;;;17.50;99.90;;;;;;5036314;28;20554;-62
2021/09/11 07:28:55;;;;;;;13.38;9.73;;;17.60;99.90;;;;;;5035591;28;20036;-62
2021/09/11 07:31:21;;;;;;;16.25;10.30;;;17.60;99.90;;;;;;5053560;28;20032;-62
2021/09/11 07:33:47;;;;;;;10.02;8.98;;;17.60;99.90;;;;;;5053217;28;20469;-62
2021/09/11 07:36:13;;;;;;;10.80;8.80;;;17.70;99.90;;;;;;5053159;28;20059;-62
2021/09/11 07:38:39;;;;;;;12.45;8.10;;;17.80;99.90;;;;;;5043096;28;20028;-62
2021/09/11 07:41:04;;;;;;;12.00;9.82;;;17.80;99.90;;;;;;5072923;28;20036;-62
2021/09/11 07:43:30;;;;;;;12.60;9.48;;;17.90;99.90;;;;;;5055207;28;20044;-62
2021/09/11 07:45:56;;;;;;;11.43;8.48;;;17.90;99.90;;;;;;5040058;28;20028;-62
2021/09/11 07:48:22;;;;;;;10.73;9.55;;;17.90;99.90;;;;;;5054619;28;20119;-61
2021/09/11 07:50:47;;;;;;;9.13;7.72;;;18.00;99.90;;;;;;5056996;28;20384;-63
2021/09/11 07:53:15;;;;;;;10.43;9.32;;;18.10;99.90;;;;;;5052574;28;20029;-63
2021/09/11 07:55:40;;;;;;;13.65;10.30;;;18.20;99.90;;;;;;5038245;28;20481;-63
2021/09/11 07:58:06;;;;;;;12.10;10.77;;;18.30;99.90;;;;;;5052854;28;20036;-63
2021/09/11 08:00:31;;;;;;;10.45;9.35;;;18.30;99.90;;;;;;5052561;28;20029;-63
2021/09/11 08:02:57;;;;;;;15.75;12.02;;;18.40;99.90;;;;;;5034786;28;20025;-63
2021/09/11 08:05:23;;;;;;;11.70;10.05;;;18.40;99.90;;;;;;5052666;28;20476;-63
2021/09/11 08:07:49;;;;;;;16.17;13.05;;;18.50;99.90;;;;;;5052565;28;20055;-63
2021/09/11 08:10:15;;;;;;;14.55;12.52;;;18.60;99.90;;;;;;5052644;28;20472;-63
2021/09/11 08:12:51;;;;;;;12.85;11.38;;;18.60;99.90;;;;;;5052628;28;20025;-63
2021/09/11 08:15:18;;;;;;;13.55;11.40;;;18.70;99.90;;;;;;5034895;28;20066;-63
2021/09/11 08:17:44;;;;;;;11.93;9.98;;;18.70;99.90;;;;;;5052369;28;20016;-64
2021/09/11 08:20:11;;;;;;;14.77;13.20;;;18.70;99.90;;;;;;5052417;28;20028;-63
2021/09/11 08:22:36;;;;;;;17.42;13.82;;;18.80;99.90;;;;;;5052358;28;20036;-63
2021/09/11 08:25:08;;;;;;;15.25;12.88;;;18.80;99.90;;;;;;5045915;28;20029;-63
2021/09/11 08:27:34;;;;;;;12.95;11.07;;;18.80;99.90;;;;;;5057812;28;20036;-64
2021/09/11 08:30:00;;;;;;;16.05;12.77;;;18.80;99.90;;;;;;5057624;28;20024;-64
2021/09/11 08:32:25;;;;;;;14.88;13.38;;;18.90;99.90;;;;;;5071995;28;20477;-64
2021/09/11 08:35:09;;;;;;;16.38;14.68;;;19.10;99.80;;;;;;5066436;28;20150;-64
2021/09/11 08:38:15;;;;;;;15.93;12.80;;;19.20;99.40;;;;;;5071718;28;20444;-64
2021/09/11 08:40:41;;;;;;;14.88;13.38;;;19.20;99.40;;;;;;5068679;28;20109;-63
2021/09/11 08:43:07;;;;;;;14.55;13.05;;;19.20;99.30;;;;;;5069467;28;20098;-63
2021/09/11 08:45:33;;;;;;;15.18;12.85;;;19.20;99.20;;;;;;5071929;28;20024;-63
2021/09/11 08:48:27;;;;;;;;;;;;;;;;;;;;;
2021/09/11 08:50:53;;;;;;;14.82;13.23;;;19.20;98.80;;;;;;5063816;28;20037;-64
2021/09/11 08:53:19;;;;;;;18.23;15.05;;;19.20;98.80;;;;;;5052351;28;20123;-64
2021/09/11 08:55:45;;;;;;;17.38;15.50;;;19.20;98.80;;;;;;5058502;28;20108;-64
2021/09/11 08:58:11;;;;;;;20.65;16.27;;;19.20;98.60;;;;;;5071644;28;20029;-64
2021/09/11 09:00:42;;;;;;;17.00;13.98;;;19.20;98.40;;;;;;5048300;28;20029;-64
2021/09/11 09:03:37;;;;;;;19.85;15.85;;;19.30;98.80;;;;;;5071658;28;20027;-63
2021/09/11 09:06:36;;;;;;;15.63;14.02;;;19.40;98.30;;;;;;5070548;28;20021;-63
2021/09/11 09:09:06;;;;;;;16.70;15.00;;;19.60;98.10;;;;;;5018989;28;20048;-63
2021/09/11 09:11:34;;;;;;;15.20;13.68;;;19.60;98.00;;;;;;5051858;28;20092;-64
2021/09/11 09:14:08;;;;;;;19.38;16.40;;;19.70;98.00;;;;;;5052248;28;20060;-64
2021/09/11 09:16:42;;;;;;;17.20;15.20;;;19.70;97.80;;;;;;5052009;28;20013;-63
2021/09/11 09:19:11;;;;;;;19.48;17.00;;;19.70;97.70;;;;;;5051896;28;20029;-64
2021/09/11 09:21:37;;;;;;;19.60;16.45;;;19.60;97.70;;;;;;5048381;28;20021;-63
2021/09/11 09:24:05;;;;;;;17.77;15.98;;;19.60;97.90;;;;;;5043018;28;20037;-64
2021/09/11 09:27:00;;;;;;;19.35;16.88;;;19.60;97.90;;;;;;5052392;28;20025;-64
2021/09/11 09:29:26;;;;;;;18.77;16.75;;;19.60;97.80;;;;;;5051744;28;20384;-64
2021/09/11 09:31:55;;;;;;;20.52;17.60;;;19.50;97.90;;;;;;5033965;28;20100;-64
2021/09/11 09:34:50;;;;;;;22.98;19.05;;;19.50;97.90;;;;;;5055384;28;20457;-63
2021/09/11 09:37:18;;;;;;;19.02;16.98;;;19.40;97.80;;;;;;5053853;28;20108;-63
2021/09/11 09:39:49;;;;;;;18.77;16.77;;;19.40;98.10;;;;;;5037600;28;20099;-63
2021/09/11 09:42:17;;;;;;;19.13;16.10;;;19.40;98.10;;;;;;5058365;28;20052;-63
2021/09/11 09:44:51;;;;;;;20.52;16.25;;;19.40;98.20;;;;;;5074867;28;20384;-64
2021/09/11 09:47:25;;;;;;;18.80;16.20;;;19.40;98.50;;;;;;5074985;28;20028;-64
2021/09/11 09:50:11;;;;;;;18.70;16.52;;;19.40;98.20;;;;;;5069256;28;20031;-64
2021/09/11 09:52:38;;;;;;;20.67;16.75;;;19.40;98.20;;;;;;5071036;28;20376;-64
2021/09/11 09:55:06;;;;;;;21.90;18.33;;;19.40;98.30;;;;;;5074873;28;20504;-63
2021/09/11 09:57:32;;;;;;;17.23;15.48;;;19.50;98.40;;;;;;5074669;28;20028;-64
2021/09/11 10:00:03;;;;;;;19.38;16.92;;;19.50;98.50;;;;;;5074795;28;20028;-64
2021/09/11 10:02:29;;;;;;;17.85;16.00;;;19.50;98.50;;;;;;5046651;28;20469;-63
2021/09/11 10:04:56;;;;;;;19.63;16.42;;;19.60;98.40;;;;;;5034737;28;20030;-63
2021/09/11 10:07:22;;;;;;;18.98;17.02;;;19.60;98.30;;;;;;5034648;28;20080;-64
2021/09/11 10:10:09;;;;;;;18.42;16.63;;;19.60;98.30;;;;;;5034098;28;20535;-64
2021/09/11 10:12:37;;;;;;;20.75;17.83;;;19.70;98.30;;;;;;5034174;28;20444;-63
2021/09/11 10:15:21;;;;;;;18.38;15.68;;;19.60;98.40;;;;;;5054974;28;20021;-64
2021/09/11 10:18:19;;;;;;;;;;;;;;;;;;;;;
2021/09/11 10:24:14;;;;;;;19.95;17.55;;;19.80;98.10;;;;;;5016181;28;20404;-64
2021/09/11 10:27:28;;;;;;;20.20;17.40;;;19.80;98.10;;;;;;5035132;28;20071;-64
2021/09/11 10:29:55;;;;;;;17.52;15.75;;;19.90;97.90;;;;;;5000966;28;20033;-63
2021/09/11 10:32:34;;;;;;;19.23;17.15;;;20.00;98.00;;;;;;5035129;28;20112;-63
2021/09/11 10:35:23;;;;;;;18.33;15.23;;;20.10;97.90;;;;;;5034751;28;20025;-64
2021/09/11 10:37:58;;;;;;;;;;;20.10;97.70;;;;;;5049210;28;20047;-64
2021/09/11 10:44:11;;;;;;;20.10;16.05;;;20.40;97.80;;;;;;4971245;28;20158;-64
2021/09/11 10:46:54;;;;;;;19.45;17.05;;;20.60;97.40;;;;;;5053528;28;20124;-64
2021/09/11 10:49:28;;;;;;;21.80;19.55;;;20.90;97.00;;;;;;5025576;28;20036;-64
2021/09/11 10:52:11;;;;;;;19.17;17.20;;;21.10;96.40;;;;;;5053560;28;20013;-64
2021/09/11 10:54:41;;;;;;;19.25;17.23;;;21.20;96.10;;;;;;5052186;28;20423;-64
2021/09/11 10:57:13;;;;;;;19.77;17.67;;;21.20;95.80;;;;;;5054169;28;20036;-64
2021/09/11 10:59:41;;;;;;;20.48;18.38;;;21.20;95.50;;;;;;5053919;28;20048;-64
2021/09/11 11:02:23;;;;;;;19.55;17.63;;;21.20;95.30;;;;;;5053749;28;20473;-64
2021/09/11 11:04:51;;;;;;;19.23;17.33;;;21.10;95.30;;;;;;5053774;28;20025;-64
2021/09/11 11:11:22;;;;;;;17.23;15.55;;;21.00;95.20;;;;;;4963642;28;20039;-64
2021/09/11 11:14:46;;;;;;;17.80;15.90;;;21.00;95.20;;;;;;4930037;28;20043;-64
2021/09/11 11:17:15;;;;;;;21.55;17.55;;;21.00;95.30;;;;;;4918627;28;20039;-64
2021/09/11 11:19:44;;;;;;;16.40;14.43;;;21.00;95.30;;;;;;4953287;28;20210;-64
2021/09/11 11:22:20;;;;;;;17.13;15.40;;;21.20;95.20;;;;;;5012142;28;20546;-64
2021/09/11 11:24:47;;;;;;;16.63;14.23;;;21.60;95.20;;;;;;5053331;28;20063;-65
2021/09/11 11:27:30;;;;;;;15.23;13.45;;;22.70;93.80;;;;;;5053218;28;20102;-65
2021/09/11 11:30:33;;;;;;;;;;;;;;;;;;;;;
2021/09/11 11:33:00;;;;;;;16.00;14.25;;;23.10;91.20;;;;;;5020389;28;20589;-64
2021/09/11 11:35:26;;;;;;;14.88;13.43;;;22.90;91.30;;;;;;5036044;28;20428;-65
2021/09/11 11:38:00;;;;;;;14.90;13.43;;;22.70;91.50;;;;;;5051943;28;20387;-65
2021/09/11 11:40:52;;;;;;;17.30;15.60;;;22.60;91.60;;;;;;5040264;28;20024;-65
2021/09/11 11:46:33;;;;;;;16.35;14.52;;;22.30;92.10;;;;;;4999938;28;20041;-67
2021/09/11 11:48:59;;;;;;;18.15;16.38;;;22.20;92.30;;;;;;5029468;28;20048;-67
2021/09/11 11:51:25;;;;;;;13.65;12.38;;;21.90;92.30;;;;;;5051449;28;20021;-67
2021/09/11 11:53:50;;;;;;;13.73;12.35;;;21.90;92.80;;;;;;5042630;28;20536;-67
2021/09/11 11:59:19;;;;;;;14.52;13.23;;;21.70;93.10;;;;;;5042074;28;20033;-67
2021/09/11 12:01:45;;;;;;;16.70;15.05;;;21.60;93.70;;;;;;5051913;28;20481;-68
2021/09/11 12:04:19;;;;;;;14.95;13.55;;;21.60;93.80;;;;;;5047002;28;20034;-68
2021/09/11 12:06:55;;;;;;;15.35;14.02;;;21.60;94.00;;;;;;5038560;28;20515;-67
2021/09/11 12:09:20;;;;;;;14.38;13.07;;;21.50;94.30;;;;;;5052122;28;20028;-67
2021/09/11 12:11:46;;;;;;;14.52;13.23;;;21.50;94.50;;;;;;5046860;28;20100;-67
2021/09/11 12:14:14;;;;;;;13.35;11.95;;;21.50;94.50;;;;;;5035276;28;20484;-67
2021/09/11 12:16:42;;;;;;;11.82;10.77;;;21.50;94.60;;;;;;5016563;28;20010;-67
2021/09/11 12:19:12;;;;;;;10.00;9.10;;;21.60;94.60;;;;;;5033693;28;20018;-67
2021/09/11 12:21:38;;;;;;;8.60;7.82;;;21.70;94.50;;;;;;5033780;28;20045;-67
2021/09/11 12:24:03;;;;;;;7.95;7.25;;;21.80;94.30;;;;;;5028586;28;20064;-67
2021/09/11 12:26:36;;;;;;;7.95;7.25;;;21.90;94.10;;;;;;5033764;28;20080;-67
2021/09/11 12:29:18;;;;;;;7.05;6.45;;;22.20;93.80;;;;;;5033609;28;20047;-67
2021/09/11 12:32:24;;;;;;;7.47;6.57;;;22.50;93.40;;;;;;5032354;28;20021;-67
2021/09/11 12:34:49;;;;;;;7.00;6.38;;;23.20;92.90;;;;;;5024949;28;20057;-67
2021/09/11 12:37:15;;;;;;;6.60;6.00;;;23.30;92.30;;;;;;5047792;28;20480;-67
2021/09/11 12:39:41;;;;;;;8.70;7.85;;;23.40;92.10;;;;;;5050661;28;20040;-67
2021/09/11 12:43:11;;;;;;;9.07;8.27;;;23.50;91.90;;;;;;5032616;28;20022;-67
2021/09/11 12:46:54;;;;;;;15.20;13.60;;;23.50;91.70;;;;;;4988872;28;20623;-67
2021/09/11 12:49:53;;;;;;;13.38;12.05;;;23.20;91.20;;;;;;4969734;28;20414;-67
2021/09/11 12:52:28;;;;;;;10.80;9.80;;;22.80;91.90;;;;;;4967866;28;20118;-67
2021/09/11 12:55:43;;;;;;;11.52;10.43;;;22.70;92.30;;;;;;4973296;28;20026;-67
2021/09/11 12:58:08;;;;;;;9.73;8.82;;;22.70;92.30;;;;;;4985275;28;20069;-67
2021/09/11 13:00:36;;;;;;;9.43;8.27;;;22.60;92.50;;;;;;4989894;28;20058;-67
2021/09/11 13:03:02;;;;;;;9.60;8.65;;;22.50;92.20;;;;;;5019359;28;20472;-67
2021/09/11 13:05:28;;;;;;;8.35;7.55;;;22.70;91.80;;;;;;5037211;28;20105;-67